Time;durP1;ratioP1;P1;durP2;ratioP2;P2;SDS_P1;SDS_P2;PMS_P1;PMS_P2;Temp;Humidity;BMP_temperature;BMP_pressure;BME280_temperature;BME280_humidity;BME280_pressure;Samples;Min_cycle;Max_cycle;Signal;HPM_P1;HPM_P2
2022/07/09 00:01:27;;;;;;;4.20;1.60;;;14.60;99.90;;;13.85;100.00;98741.81;5022420;28;20599;-63
2022/07/09 00:03:55;;;;;;;5.10;1.90;;;14.50;99.90;;;13.95;100.00;98744.00;5022165;28;20618;-64
2022/07/09 00:06:21;;;;;;;3.30;1.75;;;14.50;99.90;;;13.94;100.00;98741.47;5019337;28;20107;-64
2022/07/09 00:08:48;;;;;;;5.75;2.20;;;14.50;99.90;;;13.96;100.00;98734.44;5023750;28;20073;-62
2022/07/09 00:11:15;;;;;;;3.47;1.75;;;14.50;99.90;;;13.85;100.00;98734.00;5021368;28;20041;-62
2022/07/09 00:13:42;;;;;;;2.97;1.83;;;14.50;99.90;;;13.72;100.00;98737.03;5019973;28;20128;-63
2022/07/09 00:16:09;;;;;;;3.72;1.45;;;14.40;99.90;;;13.67;100.00;98740.75;5019130;28;20172;-63
2022/07/09 00:18:36;;;;;;;4.15;1.60;;;14.40;99.90;;;13.51;100.00;98736.06;5022223;28;20088;-63
2022/07/09 00:21:05;;;;;;;4.35;1.80;;;14.30;99.90;;;13.56;100.00;98739.34;5021539;28;20057;-63
2022/07/09 00:23:33;;;;;;;3.88;1.83;;;14.30;99.90;;;13.49;100.00;98737.88;5020124;28;20398;-64
2022/07/09 00:26:00;;;;;;;4.40;1.98;;;14.20;99.90;;;13.56;100.00;98726.31;5021970;28;20061;-64
2022/07/09 00:28:27;;;;;;;5.72;1.88;;;14.10;99.90;;;13.49;100.00;98737.03;5022408;28;20124;-64
2022/07/09 00:30:54;;;;;;;3.13;1.60;;;14.10;99.90;;;13.48;100.00;98730.97;5020498;28;20527;-64
2022/07/09 00:33:21;;;;;;;3.47;1.80;;;14.10;99.90;;;13.51;100.00;98730.00;5021635;28;20050;-65
2022/07/09 00:35:48;;;;;;;5.20;1.90;;;14.10;99.90;;;13.51;100.00;98723.03;5021949;28;20049;-63
2022/07/09 00:38:15;;;;;;;3.83;1.70;;;14.10;99.90;;;13.51;100.00;98722.19;5021809;28;20073;-63
2022/07/09 00:40:42;;;;;;;4.47;1.50;;;14.10;99.90;;;13.59;100.00;98725.34;5019023;28;20049;-64
2022/07/09 00:43:21;;;;;;;4.45;1.73;;;14.10;99.90;;;13.50;100.00;98723.06;5021967;28;20055;-65
2022/07/09 00:45:48;;;;;;;2.85;1.50;;;14.10;99.90;;;13.48;100.00;98723.16;5004775;28;20141;-63
2022/07/09 00:48:16;;;;;;;3.17;1.70;;;14.10;99.90;;;13.52;100.00;98721.25;5023331;28;20049;-62
2022/07/09 00:50:44;;;;;;;4.47;2.10;;;14.00;99.90;;;13.47;100.00;98718.81;5021973;28;20067;-64
2022/07/09 00:53:15;;;;;;;6.53;2.30;;;14.00;99.90;;;13.40;100.00;98714.72;5021949;28;20049;-64
2022/07/09 00:55:44;;;;;;;6.38;2.17;;;14.00;99.90;;;13.37;100.00;98713.09;5004280;28;20124;-65
2022/07/09 00:58:19;;;;;;;4.72;1.92;;;13.90;99.90;;;13.40;100.00;98712.13;5021359;28;20049;-63
2022/07/09 01:00:45;;;;;;;3.38;1.85;;;13.90;99.90;;;13.27;100.00;98713.44;5022469;28;20045;-64
2022/07/09 01:03:13;;;;;;;5.30;1.80;;;13.90;99.90;;;13.36;100.00;98707.91;5020899;28;20056;-62
2022/07/09 01:05:40;;;;;;;4.22;2.00;;;13.80;99.90;;;13.40;100.00;98704.31;5021453;28;20067;-64
2022/07/09 01:08:08;;;;;;;4.25;1.83;;;13.90;99.90;;;13.41;100.00;98706.03;5021139;28;20073;-63
2022/07/09 01:10:36;;;;;;;5.13;2.20;;;13.90;99.90;;;13.50;100.00;98708.28;5022708;28;20038;-62
2022/07/09 01:13:05;;;;;;;6.47;1.75;;;13.90;99.90;;;13.44;100.00;98705.06;5002971;28;20165;-63
2022/07/09 01:15:33;;;;;;;4.38;2.08;;;13.90;99.90;;;13.41;100.00;98705.16;5022946;28;20459;-63
2022/07/09 01:18:00;;;;;;;5.47;1.60;;;13.90;99.90;;;13.47;100.00;98702.31;5003509;28;20045;-64
2022/07/09 01:20:29;;;;;;;3.85;1.48;;;13.90;99.90;;;13.51;100.00;98704.75;5020875;28;20191;-63
2022/07/09 01:22:57;;;;;;;4.03;1.90;;;14.00;99.90;;;13.31;100.00;98699.41;5020517;28;20426;-64
2022/07/09 01:25:43;;;;;;;3.67;1.55;;;13.90;99.90;;;13.39;100.00;98695.63;5006115;28;20045;-64
2022/07/09 01:28:12;;;;;;;3.50;1.40;;;13.90;99.90;;;13.46;100.00;98695.41;5019831;28;20128;-65
2022/07/09 01:30:40;;;;;;;3.13;1.10;;;13.90;99.90;;;13.51;100.00;98691.72;5003785;28;20148;-64
2022/07/09 01:33:08;;;;;;;5.43;1.67;;;13.90;99.90;;;13.50;100.00;98691.78;5017483;28;20060;-63
2022/07/09 01:35:35;;;;;;;3.47;1.50;;;13.90;99.90;;;13.63;100.00;98692.19;5019812;28;20715;-64
2022/07/09 01:38:02;;;;;;;4.45;1.40;;;13.90;99.90;;;13.64;100.00;98683.44;5021803;28;20081;-62
2022/07/09 01:40:29;;;;;;;4.50;1.70;;;13.90;99.90;;;13.55;100.00;98677.66;5022391;28;20083;-63
2022/07/09 01:42:56;;;;;;;2.80;1.20;;;13.80;99.90;;;13.51;100.00;98676.06;5020143;28;20077;-63
2022/07/09 01:45:23;;;;;;;1.80;1.10;;;13.80;99.90;;;13.44;100.00;98678.97;5022668;28;20049;-63
2022/07/09 01:47:50;;;;;;;3.75;1.42;;;13.80;99.90;;;13.31;100.00;98676.78;5019270;28;20088;-64
2022/07/09 01:50:17;;;;;;;6.07;1.90;;;13.70;99.90;;;13.26;100.00;98673.47;5024031;28;20056;-64
2022/07/09 01:52:44;;;;;;;3.38;1.65;;;13.70;99.90;;;13.15;100.00;98681.66;5026308;28;20046;-63
2022/07/09 01:55:11;;;;;;;4.63;1.60;;;13.60;99.90;;;13.08;100.00;98684.56;5024096;28;20057;-64
2022/07/09 01:57:38;;;;;;;3.30;1.40;;;13.60;99.90;;;12.94;100.00;98672.84;5028820;28;20041;-64
2022/07/09 02:00:07;;;;;;;2.63;1.42;;;13.50;99.90;;;13.00;100.00;98678.75;5026880;28;20512;-64
2022/07/09 02:02:34;;;;;;;3.50;1.40;;;13.50;99.90;;;13.14;100.00;98669.56;5028378;28;20080;-64
2022/07/09 02:05:01;;;;;;;4.18;1.70;;;13.50;99.90;;;13.15;100.00;98673.00;5028439;28;20060;-64
2022/07/09 02:07:28;;;;;;;2.85;1.50;;;13.50;99.90;;;13.13;100.00;98680.88;5027184;28;20215;-64
2022/07/09 02:09:55;;;;;;;2.60;1.40;;;13.50;99.90;;;13.17;100.00;98673.81;5027283;28;20045;-64
2022/07/09 02:12:22;;;;;;;2.90;1.50;;;13.40;99.90;;;13.16;100.00;98677.34;5024085;28;20476;-64
2022/07/09 02:14:49;;;;;;;2.80;1.50;;;13.40;99.90;;;13.07;100.00;98681.09;5028485;28;20137;-64
2022/07/09 02:17:16;;;;;;;2.78;1.45;;;13.40;99.90;;;13.13;100.00;98670.44;5026928;28;20046;-64
2022/07/09 02:19:43;;;;;;;4.05;1.67;;;13.30;99.90;;;13.19;100.00;98679.81;5027964;28;20164;-65
2022/07/09 02:22:10;;;;;;;2.83;1.60;;;13.30;99.90;;;13.23;100.00;98675.31;5027506;28;20079;-64
2022/07/09 02:24:37;;;;;;;2.80;1.38;;;13.30;99.90;;;13.13;100.00;98673.06;5024528;28;20156;-63
2022/07/09 02:27:05;;;;;;;2.58;1.20;;;13.30;99.90;;;13.05;100.00;98674.25;5024909;28;20054;-63
2022/07/09 02:29:32;;;;;;;3.17;1.50;;;13.40;99.90;;;13.03;100.00;98671.69;5027907;28;20046;-64
2022/07/09 02:31:59;;;;;;;2.42;1.10;;;13.30;99.90;;;13.06;100.00;98675.94;5026216;28;20053;-63
2022/07/09 02:34:26;;;;;;;2.15;1.35;;;13.30;99.90;;;12.94;100.00;98678.06;5008416;28;20143;-64
2022/07/09 02:36:53;;;;;;;4.47;1.80;;;13.30;99.90;;;12.97;100.00;98677.09;5027017;28;20060;-64
2022/07/09 02:39:20;;;;;;;3.15;1.58;;;13.30;99.90;;;12.98;100.00;98674.44;5024980;28;20446;-63
2022/07/09 02:41:47;;;;;;;3.15;2.20;;;13.20;99.90;;;13.02;100.00;98674.34;5026647;28;20811;-64
2022/07/09 02:44:14;;;;;;;4.47;2.20;;;13.30;99.90;;;12.78;100.00;98679.50;5026772;28;20132;-63
2022/07/09 02:46:41;;;;;;;5.68;2.95;;;13.20;99.90;;;12.50;100.00;98680.41;5025342;28;20052;-65
2022/07/09 02:49:08;;;;;;;3.08;2.00;;;13.10;99.90;;;12.72;100.00;98677.94;5024721;28;20055;-63
2022/07/09 02:51:35;;;;;;;4.72;2.42;;;13.00;99.90;;;12.69;100.00;98677.22;5027429;28;20048;-63
2022/07/09 02:54:01;;;;;;;4.05;1.83;;;13.10;99.90;;;12.74;100.00;98677.91;5025690;28;20057;-63
2022/07/09 02:56:28;;;;;;;3.78;1.90;;;13.10;99.90;;;12.60;100.00;98673.16;5026735;28;20599;-64
2022/07/09 02:58:55;;;;;;;2.95;1.55;;;13.10;99.90;;;12.70;100.00;98673.69;5026003;28;20091;-63
2022/07/09 03:01:22;;;;;;;3.38;1.88;;;13.10;99.90;;;12.74;100.00;98660.50;5025814;28;20045;-64
2022/07/09 03:03:50;;;;;;;3.38;1.63;;;13.00;99.90;;;12.74;100.00;98663.09;5026733;28;20073;-64
2022/07/09 03:06:17;;;;;;;3.42;1.52;;;12.90;99.90;;;12.49;100.00;98664.84;5025121;28;20251;-63
2022/07/09 03:08:44;;;;;;;3.15;1.67;;;12.90;99.90;;;12.27;100.00;98662.06;5022487;28;20098;-63
2022/07/09 03:11:11;;;;;;;2.75;1.80;;;12.90;99.90;;;12.44;100.00;98657.19;5025407;28;20152;-64
2022/07/09 03:13:38;;;;;;;3.92;1.98;;;12.80;99.90;;;12.45;100.00;98658.91;5026112;28;20059;-63
2022/07/09 03:16:06;;;;;;;4.32;2.30;;;12.80;99.90;;;12.50;100.00;98662.19;5026624;28;20049;-65
2022/07/09 03:18:33;;;;;;;4.43;3.08;;;12.80;99.90;;;12.30;100.00;98662.84;5026965;28;20608;-63
2022/07/09 03:21:01;;;;;;;6.57;4.00;;;12.80;99.90;;;11.98;100.00;98673.41;5022293;28;20057;-64
2022/07/09 03:23:28;;;;;;;6.78;3.72;;;12.70;99.90;;;11.90;100.00;98676.22;5024367;28;20132;-64
2022/07/09 03:25:55;;;;;;;6.88;4.68;;;12.60;99.90;;;11.77;100.00;98680.94;5023715;28;20041;-63
2022/07/09 03:28:21;;;;;;;7.00;4.25;;;12.50;99.90;;;11.64;100.00;98685.63;5024535;28;20502;-63
2022/07/09 03:30:48;;;;;;;4.47;3.50;;;12.50;99.90;;;11.96;100.00;98683.00;5025428;28;20068;-63
2022/07/09 03:33:15;;;;;;;5.97;3.28;;;12.50;99.90;;;11.96;100.00;98688.22;5025593;28;20060;-62
2022/07/09 03:35:43;;;;;;;7.32;5.63;;;12.40;99.90;;;11.86;100.00;98688.47;5025829;28;20160;-63
2022/07/09 03:38:10;;;;;;;8.40;4.72;;;12.50;99.90;;;11.84;100.00;98692.88;5024268;28;20501;-63
2022/07/09 03:40:37;;;;;;;11.18;5.15;;;12.50;99.90;;;11.84;100.00;98692.88;5024303;28;20060;-63
2022/07/09 03:43:04;;;;;;;4.97;3.30;;;12.40;99.90;;;11.96;100.00;98696.88;5025368;28;20049;-62
2022/07/09 03:45:31;;;;;;;7.05;4.25;;;12.40;99.90;;;11.76;100.00;98697.44;5024977;28;20128;-64
2022/07/09 03:47:57;;;;;;;9.57;5.47;;;12.50;99.90;;;11.68;100.00;98695.06;5025555;28;20049;-63
2022/07/09 03:50:24;;;;;;;6.15;4.70;;;12.50;99.90;;;11.76;100.00;98696.59;5024469;28;20479;-64
2022/07/09 03:52:51;;;;;;;4.85;3.72;;;12.50;99.90;;;11.95;100.00;98702.09;5024895;28;20059;-64
2022/07/09 03:55:18;;;;;;;7.13;4.32;;;12.50;99.90;;;11.97;100.00;98706.38;5025009;28;20068;-63
2022/07/09 03:57:45;;;;;;;5.50;3.53;;;12.50;99.90;;;12.22;100.00;98684.81;5024453;28;20053;-64
2022/07/09 04:00:13;;;;;;;6.25;3.50;;;12.60;99.90;;;12.21;100.00;98683.09;5024757;28;20052;-64
2022/07/09 04:02:40;;;;;;;7.50;3.17;;;12.60;99.90;;;12.37;100.00;98680.88;5025874;28;20499;-63
2022/07/09 04:05:08;;;;;;;6.32;3.10;;;12.70;99.90;;;12.26;100.00;98682.06;5026429;28;20045;-63
2022/07/09 04:07:36;;;;;;;5.22;3.08;;;12.80;99.90;;;12.43;100.00;98671.13;5023410;28;20097;-65
2022/07/09 04:10:03;;;;;;;3.60;2.30;;;12.80;99.90;;;12.44;100.00;98664.16;5022418;28;20046;-63
2022/07/09 04:12:30;;;;;;;4.90;3.50;;;12.90;99.90;;;12.49;100.00;98668.28;5023612;28;20041;-63
2022/07/09 04:14:57;;;;;;;4.80;3.05;;;13.00;99.90;;;12.65;100.00;98670.38;5023760;28;20132;-64
2022/07/09 04:17:24;;;;;;;5.68;3.35;;;13.10;99.90;;;12.84;100.00;98674.09;5023356;28;20053;-64
2022/07/09 04:19:51;;;;;;;6.30;3.40;;;13.10;99.90;;;12.85;100.00;98681.00;5024931;28;20065;-64
2022/07/09 04:22:18;;;;;;;3.63;2.58;;;13.10;99.90;;;12.98;100.00;98673.63;5022414;28;20045;-63
2022/07/09 04:24:45;;;;;;;7.75;3.90;;;13.20;99.90;;;12.67;100.00;98668.59;5024287;28;20050;-64
2022/07/09 04:27:12;;;;;;;6.45;4.65;;;13.30;99.90;;;12.33;100.00;98680.09;5022837;28;20045;-65
2022/07/09 04:29:39;;;;;;;6.40;4.95;;;13.30;99.90;;;12.55;100.00;98688.09;5008440;28;20145;-64
2022/07/09 04:32:06;;;;;;;9.70;4.75;;;13.30;99.90;;;12.69;100.00;98685.88;5024301;28;20054;-63
2022/07/09 04:34:33;;;;;;;9.32;4.70;;;13.40;99.90;;;12.47;100.00;98690.06;5025192;28;20071;-63
2022/07/09 04:37:00;;;;;;;6.22;4.75;;;13.50;99.90;;;12.62;100.00;98691.34;5023443;28;20474;-64
2022/07/09 04:39:27;;;;;;;5.97;5.25;;;13.50;99.90;;;12.68;100.00;98685.91;5024431;28;20112;-63
2022/07/09 04:41:54;;;;;;;11.02;6.72;;;13.60;99.90;;;12.51;100.00;98687.31;5023941;28;20080;-64
2022/07/09 04:44:21;;;;;;;6.03;4.97;;;13.70;99.90;;;12.62;100.00;98689.59;5022868;28;20053;-64
2022/07/09 04:46:48;;;;;;;7.72;5.45;;;13.70;99.90;;;12.95;100.00;98685.00;5023783;28;20069;-62
2022/07/09 04:49:15;;;;;;;7.78;4.15;;;13.70;99.90;;;13.36;100.00;98682.72;5023197;28;20045;-64
2022/07/09 04:51:42;;;;;;;5.05;4.20;;;13.90;99.90;;;13.60;100.00;98685.31;5021872;28;20048;-63
2022/07/09 04:54:09;;;;;;;5.28;4.18;;;14.10;99.90;;;13.99;100.00;98669.91;5024093;28;20475;-63
2022/07/09 04:56:36;;;;;;;5.88;3.90;;;14.40;99.90;;;14.12;100.00;98665.06;5022856;28;20837;-64
2022/07/09 04:59:02;;;;;;;6.00;3.08;;;14.60;99.90;;;14.23;100.00;98660.25;5024569;28;20144;-64
2022/07/09 05:01:30;;;;;;;4.95;3.45;;;14.80;99.90;;;14.50;100.00;98654.81;5006834;28;20611;-65
2022/07/09 05:03:58;;;;;;;5.82;4.25;;;14.90;99.90;;;14.30;100.00;98655.66;5024732;28;20054;-65
2022/07/09 05:06:25;;;;;;;6.72;3.70;;;15.10;99.90;;;14.28;100.00;98660.06;5022228;28;20041;-64
2022/07/09 05:08:52;;;;;;;5.68;3.90;;;15.20;99.90;;;14.14;100.00;98660.63;5023607;28;20132;-64
2022/07/09 05:11:19;;;;;;;8.70;4.53;;;15.20;99.90;;;14.43;100.00;98656.81;5023876;28;20124;-64
2022/07/09 05:13:46;;;;;;;8.00;4.20;;;15.20;99.90;;;14.22;100.00;98666.38;5024702;28;20452;-64
2022/07/09 05:16:14;;;;;;;7.00;4.22;;;15.30;99.90;;;14.42;100.00;98649.91;5024371;28;20069;-64
2022/07/09 05:18:41;;;;;;;3.67;3.28;;;15.30;99.90;;;14.89;100.00;98650.63;5020845;28;20513;-64
2022/07/09 05:21:08;;;;;;;5.80;3.00;;;15.50;99.90;;;15.02;100.00;98651.78;5023943;28;20049;-64
2022/07/09 05:23:36;;;;;;;6.03;3.28;;;15.70;99.90;;;15.20;100.00;98644.91;5022638;28;20219;-65
2022/07/09 05:26:04;;;;;;;7.90;3.33;;;15.80;99.90;;;15.25;100.00;98637.69;5008846;28;20057;-65
2022/07/09 05:28:31;;;;;;;6.72;4.28;;;15.90;99.90;;;15.20;100.00;98644.91;5027618;28;20860;-64
2022/07/09 05:30:58;;;;;;;5.75;3.30;;;16.00;99.90;;;15.41;100.00;98641.31;5026414;28;20512;-64
2022/07/09 05:33:45;;;;;;;5.35;3.60;;;16.10;99.90;;;15.07;100.00;98641.97;5026084;28;20050;-64
2022/07/09 05:36:17;;;;;;;7.75;3.83;;;16.10;99.90;;;15.05;100.00;98643.78;5026332;28;20057;-64
2022/07/09 05:38:47;;;;;;;5.13;3.25;;;16.20;99.90;;;15.14;100.00;98642.56;5029221;28;20056;-65
2022/07/09 05:41:15;;;;;;;4.63;3.30;;;16.20;99.90;;;15.24;100.00;98641.25;5026327;28;20046;-65
2022/07/09 05:43:42;;;;;;;6.90;3.25;;;16.30;99.90;;;15.34;100.00;98637.28;5026587;28;20382;-65
2022/07/09 05:46:09;;;;;;;5.82;2.97;;;16.30;99.90;;;15.63;100.00;98635.97;5026296;28;20156;-64
2022/07/09 05:48:36;;;;;;;6.90;3.33;;;;;;;15.55;100.00;98639.84;5012883;28;20049;-64
2022/07/09 05:51:04;;;;;;;6.63;3.22;;;16.60;99.90;;;15.76;100.00;98633.66;5027018;28;20136;-65
2022/07/09 05:53:31;;;;;;;7.35;3.67;;;16.70;99.90;;;15.99;100.00;98636.97;5027529;28;20049;-64
2022/07/09 05:55:58;;;;;;;4.22;3.00;;;16.80;99.90;;;16.07;100.00;98640.06;5025354;28;20136;-65
2022/07/09 05:58:26;;;;;;;4.00;2.25;;;16.90;99.90;;;16.46;100.00;98631.16;5025588;28;20077;-64
2022/07/09 06:00:53;;;;;;;7.20;2.15;;;17.10;99.90;;;16.89;100.00;98624.63;5029444;28;20567;-64
2022/07/09 06:03:20;;;;;;;3.90;2.05;;;17.40;99.90;;;17.18;100.00;98630.16;5027198;28;20045;-63
2022/07/09 06:05:47;;;;;;;4.50;2.00;;;17.70;99.90;;;17.45;100.00;98621.75;5028660;28;20064;-64
2022/07/09 06:08:13;;;;;;;5.05;2.15;;;18.00;99.90;;;17.38;100.00;98623.84;5028052;28;20053;-62
2022/07/09 06:10:40;;;;;;;3.30;1.70;;;18.30;99.90;;;17.79;100.00;98620.75;5027791;28;20076;-64
2022/07/09 06:13:07;;;;;;;2.97;1.45;;;18.40;99.90;;;18.07;100.00;98620.06;5026981;28;20075;-64
2022/07/09 06:15:34;;;;;;;2.92;1.60;;;18.50;99.90;;;18.04;100.00;98615.00;5024851;28;20045;-66
2022/07/09 06:18:05;;;;;;;4.38;2.15;;;18.70;99.90;;;17.90;100.00;98621.03;5028613;28;20128;-65
2022/07/09 06:20:32;;;;;;;4.15;1.95;;;18.90;99.90;;;18.09;100.00;98614.75;5025979;28;20072;-64
2022/07/09 06:23:06;;;;;;;4.65;1.73;;;18.90;99.90;;;18.30;100.00;98610.88;5024526;28;20133;-65
2022/07/09 06:25:33;;;;;;;8.52;1.77;;;18.90;99.90;;;18.23;100.00;98613.94;5027366;28;20049;-64
2022/07/09 06:28:00;;;;;;;3.42;1.60;;;;;;;18.45;100.00;98608.28;5026617;28;20095;-65
2022/07/09 06:30:27;;;;;;;3.40;1.42;;;19.30;99.90;;;18.54;100.00;98616.50;5028646;28;20068;-66
2022/07/09 06:32:54;;;;;;;2.45;1.15;;;19.50;99.90;;;18.69;100.00;98612.09;5026681;28;20306;-63
2022/07/09 06:35:21;;;;;;;2.10;1.02;;;19.60;99.90;;;19.18;100.00;98611.81;5025674;28;20057;-63
2022/07/09 06:37:48;;;;;;;3.13;1.00;;;19.80;99.90;;;19.53;100.00;98619.31;5026224;28;20509;-65
2022/07/09 06:40:15;;;;;;;2.95;1.02;;;20.10;99.90;;;19.71;100.00;98606.81;5027847;28;20128;-64
2022/07/09 06:42:42;;;;;;;3.10;1.05;;;20.40;99.90;;;19.98;100.00;98601.56;5024190;28;20087;-63
2022/07/09 06:45:10;;;;;;;4.70;1.23;;;20.60;99.90;;;20.04;100.00;98616.97;5025432;28;20059;-64
2022/07/09 06:47:37;;;;;;;4.93;1.15;;;20.80;99.90;;;20.05;100.00;98609.94;5022980;28;20128;-63
2022/07/09 06:50:10;;;;;;;4.22;1.33;;;20.90;99.90;;;20.21;100.00;98607.97;5028336;28;20045;-63
2022/07/09 06:52:37;;;;;;;4.78;1.15;;;21.00;99.90;;;20.33;100.00;98606.31;5027477;28;20057;-65
2022/07/09 06:55:05;;;;;;;4.20;1.20;;;21.20;99.90;;;20.53;100.00;98601.53;5026446;28;20132;-65
2022/07/09 06:57:32;;;;;;;6.70;1.35;;;21.40;99.90;;;20.70;100.00;98609.16;5028147;28;20168;-65
2022/07/09 06:59:59;;;;;;;3.60;1.02;;;21.60;99.90;;;20.73;100.00;98608.09;5026575;28;20203;-64
2022/07/09 07:02:26;;;;;;;3.10;1.30;;;21.70;99.90;;;20.83;100.00;98614.47;5026159;28;20052;-65
2022/07/09 07:04:53;;;;;;;5.18;1.40;;;21.80;99.90;;;20.87;100.00;98614.16;5027682;28;20096;-65
2022/07/09 07:07:20;;;;;;;3.70;1.55;;;21.90;99.90;;;20.90;100.00;98613.09;5025826;28;20140;-64
2022/07/09 07:09:47;;;;;;;8.07;2.10;;;22.00;99.90;;;20.92;100.00;98607.72;5029622;28;20473;-64
2022/07/09 07:12:14;;;;;;;6.63;1.90;;;22.00;99.90;;;20.99;100.00;98609.81;5027912;28;20046;-64
2022/07/09 07:14:41;;;;;;;6.95;3.70;;;22.00;99.90;;;21.09;100.00;98610.00;5030364;28;20060;-65
2022/07/09 07:17:09;;;;;;;9.02;3.60;;;22.20;99.90;;;21.22;100.00;98607.38;5026242;28;20546;-65
2022/07/09 07:19:36;;;;;;;4.70;1.70;;;22.20;99.90;;;21.28;100.00;98607.78;5028325;28;20431;-64
2022/07/09 07:22:03;;;;;;;5.25;1.92;;;22.30;99.90;;;21.39;100.00;98614.09;5025761;28;20140;-65
2022/07/09 07:24:30;;;;;;;11.50;3.42;;;22.40;99.90;;;21.46;100.00;98604.81;5027426;28;20507;-64
2022/07/09 07:26:58;;;;;;;10.07;3.50;;;22.60;99.90;;;21.48;100.00;98602.91;5027682;28;20520;-65
2022/07/09 07:29:26;;;;;;;6.15;2.65;;;22.50;99.90;;;21.47;100.00;98599.44;5027074;28;20048;-65
2022/07/09 07:31:53;;;;;;;11.70;3.90;;;22.50;99.90;;;21.43;100.00;98605.88;5027329;28;20590;-64
2022/07/09 07:34:23;;;;;;;10.52;4.60;;;22.50;99.90;;;21.57;100.00;98606.72;5027235;28;20049;-64
2022/07/09 07:36:51;;;;;;;8.63;4.43;;;22.50;99.90;;;21.84;100.00;98606.53;5025337;28;20053;-65
2022/07/09 07:39:21;;;;;;;8.23;3.85;;;22.70;99.90;;;21.80;100.00;98602.41;5008658;28;20628;-63
2022/07/09 07:41:49;;;;;;;10.05;4.00;;;22.80;99.90;;;21.68;100.00;98604.97;5025268;28;20041;-64
2022/07/09 07:44:16;;;;;;;15.63;7.95;;;22.90;99.90;;;21.93;100.00;98597.94;5021942;28;20050;-65
2022/07/09 07:46:43;;;;;;;16.75;10.10;;;23.00;99.90;;;21.77;100.00;98594.72;5024533;28;20088;-65
2022/07/09 07:49:10;;;;;;;9.32;4.38;;;22.90;99.90;;;21.89;100.00;98607.03;5027793;28;20140;-65
2022/07/09 07:51:37;;;;;;;17.10;8.20;;;22.80;99.90;;;21.80;100.00;98610.34;5024337;28;20125;-65
2022/07/09 07:54:04;;;;;;;14.07;7.55;;;22.70;99.90;;;21.87;100.00;98598.38;5025551;28;20046;-64
2022/07/09 07:56:33;;;;;;;13.00;5.80;;;22.70;99.90;;;22.03;100.00;98600.75;5009321;28;20466;-64
2022/07/09 07:59:00;;;;;;;10.18;4.32;;;22.90;99.90;;;22.10;100.00;98600.19;5027347;28;20072;-63
2022/07/09 08:01:26;;;;;;;17.63;8.52;;;22.90;99.90;;;21.98;100.00;98603.72;5027188;28;20152;-64
2022/07/09 08:03:53;;;;;;;7.22;2.60;;;22.80;99.90;;;22.06;100.00;98596.09;5024550;28;20050;-64
2022/07/09 08:06:22;;;;;;;8.38;3.88;;;22.90;99.90;;;22.18;100.00;98586.41;5007363;28;20049;-65
2022/07/09 08:08:49;;;;;;;5.80;2.60;;;23.10;99.90;;;22.48;100.00;98590.38;5024378;28;20037;-64
2022/07/09 08:11:16;;;;;;;5.25;2.15;;;23.30;99.90;;;22.22;100.00;98592.34;5022732;28;20049;-64
2022/07/09 08:13:43;;;;;;;4.90;2.20;;;23.30;99.90;;;22.72;100.00;98593.81;5022013;28;20053;-64
2022/07/09 08:16:10;;;;;;;6.72;2.05;;;23.20;99.90;;;22.03;100.00;98598.09;5023224;28;20136;-64
2022/07/09 08:18:37;;;;;;;4.82;1.77;;;23.30;99.90;;;22.34;100.00;98594.91;5022826;28;20135;-65
2022/07/09 08:21:05;;;;;;;6.05;1.65;;;23.10;99.90;;;22.51;100.00;98580.44;5014425;28;20069;-63
2022/07/09 08:23:50;;;;;;;7.93;1.73;;;23.20;99.90;;;22.70;100.00;98584.31;5020922;28;20128;-64
2022/07/09 08:26:20;;;;;;;5.15;1.60;;;23.30;99.90;;;22.86;100.00;98582.19;5025212;28;20049;-65
2022/07/09 08:28:48;;;;;;;5.43;2.30;;;23.60;99.90;;;22.32;100.00;98577.47;5008455;28;20052;-65
2022/07/09 08:31:16;;;;;;;6.07;1.88;;;23.50;99.90;;;22.64;100.00;98568.91;5021540;28;20061;-66
2022/07/09 08:33:44;;;;;;;4.85;1.58;;;23.50;99.90;;;22.91;100.00;98574.72;5022427;28;20060;-65
2022/07/09 08:36:11;;;;;;;5.75;1.83;;;23.60;99.90;;;23.11;100.00;98572.38;5023675;28;20464;-65
2022/07/09 08:38:38;;;;;;;6.15;1.63;;;23.70;99.90;;;23.31;100.00;98571.63;5022437;28;20054;-65
2022/07/09 08:41:06;;;;;;;4.78;1.30;;;24.00;99.90;;;23.55;100.00;98571.47;5023674;28;20060;-65
2022/07/09 08:43:38;;;;;;;4.90;0.80;;;24.20;99.90;;;23.72;100.00;98564.84;5025393;28;20053;-64
2022/07/09 08:46:06;;;;;;;4.20;0.93;;;24.50;99.70;;;23.87;100.00;98564.56;5006581;28;20132;-65
2022/07/09 08:48:36;;;;;;;4.10;0.80;;;24.80;98.90;;;24.13;100.00;98563.28;5022564;28;20045;-64
2022/07/09 08:51:05;;;;;;;5.03;1.00;;;24.90;98.20;;;23.62;100.00;98557.75;5021681;28;20053;-64
2022/07/09 08:53:33;;;;;;;4.35;1.10;;;24.80;97.60;;;23.93;100.00;98551.66;5020082;28;20074;-65
2022/07/09 08:56:03;;;;;;;3.42;0.73;;;24.90;98.10;;;24.55;100.00;98551.88;5007961;28;20050;-66
2022/07/09 08:58:32;;;;;;;2.33;0.80;;;25.00;98.30;;;24.84;100.00;98555.56;5022037;28;20053;-65
2022/07/09 09:01:00;;;;;;;5.43;0.98;;;25.30;98.30;;;24.65;100.00;98558.09;5023611;28;20053;-64
2022/07/09 09:03:27;;;;;;;3.72;1.20;;;25.40;98.30;;;24.58;100.00;98560.41;5021442;28;20551;-65
2022/07/09 09:06:06;;;;;;;2.45;0.88;;;25.40;97.90;;;24.26;100.00;98559.59;5021505;28;20065;-63
2022/07/09 09:08:38;;;;;;;4.63;0.90;;;25.20;98.00;;;24.41;100.00;98556.50;5019383;28;20132;-64
2022/07/09 09:11:07;;;;;;;3.60;1.10;;;;;;;23.82;100.00;98564.94;5005589;28;20049;-65
2022/07/09 09:13:45;;;;;;;3.88;1.00;;;24.80;98.10;;;24.09;100.00;98561.00;5024298;28;20124;-64
2022/07/09 09:16:15;;;;;;;3.00;0.80;;;24.60;98.60;;;24.69;100.00;98556.84;5024472;28;20049;-64
2022/07/09 09:18:47;;;;;;;3.28;0.95;;;24.70;99.50;;;24.11;100.00;98551.97;5023080;28;20160;-66
2022/07/09 09:21:17;;;;;;;3.47;0.98;;;25.20;98.70;;;24.99;100.00;98547.22;5025594;28;20167;-65
2022/07/09 09:23:50;;;;;;;7.07;1.00;;;25.60;98.10;;;24.90;100.00;98556.00;5006367;28;20141;-66
2022/07/09 09:26:20;;;;;;;5.05;0.90;;;26.10;97.70;;;24.51;100.00;98546.00;5023061;28;20046;-65
2022/07/09 09:28:50;;;;;;;2.97;0.90;;;26.10;97.10;;;23.80;100.00;98548.31;5020583;28;20151;-66
2022/07/09 09:31:31;;;;;;;4.00;1.33;;;25.60;97.10;;;24.40;100.00;98549.53;5019551;28;20080;-65
2022/07/09 09:34:14;;;;;;;7.47;1.00;;;25.10;97.50;;;24.59;100.00;98546.19;5021057;28;20090;-65
2022/07/09 09:36:47;;;;;;;4.43;1.30;;;25.00;97.50;;;25.12;100.00;98547.84;5018649;28;20043;-65
2022/07/09 09:39:14;;;;;;;3.58;0.98;;;25.30;96.90;;;25.87;100.00;98543.06;5021077;28;20049;-66
2022/07/09 09:41:49;;;;;;;3.15;0.68;;;25.80;97.60;;;25.69;100.00;98545.53;5021798;28;20057;-66
2022/07/09 09:44:19;;;;;;;2.15;0.60;;;26.40;96.70;;;26.81;100.00;98529.13;5021666;28;20561;-66
2022/07/09 09:46:47;;;;;;;3.90;0.95;;;26.90;96.80;;;26.81;100.00;98531.78;4998721;28;20145;-66
2022/07/09 09:49:15;;;;;;;4.47;1.00;;;27.30;95.80;;;27.21;100.00;98531.53;5019133;28;20139;-66
2022/07/09 09:51:51;;;;;;;3.33;1.23;;;27.20;94.70;;;25.99;100.00;98528.66;5019691;28;21597;-65
2022/07/09 09:54:20;;;;;;;4.38;0.80;;;27.10;94.30;;;27.47;100.00;98526.34;5000979;28;20055;-66
2022/07/09 09:56:49;;;;;;;3.15;0.60;;;27.30;95.30;;;27.76;100.00;98527.97;5024406;28;20068;-66
2022/07/09 09:59:17;;;;;;;3.67;0.68;;;27.60;94.60;;;27.65;100.00;98531.69;5022079;28;20109;-65
2022/07/09 10:01:45;;;;;;;1.92;0.47;;;27.60;94.70;;;27.93;100.00;98518.31;5020498;28;20061;-65
2022/07/09 10:04:18;;;;;;;1.73;0.60;;;28.00;94.10;;;27.94;100.00;98523.53;5022244;28;20451;-65
2022/07/09 10:06:45;;;;;;;5.88;0.80;;;28.00;94.00;;;27.91;100.00;98521.13;5023956;28;20041;-65
2022/07/09 10:09:14;;;;;;;5.15;0.80;;;28.00;93.30;;;26.29;100.00;98527.66;5022408;28;20046;-65
2022/07/09 10:11:47;;;;;;;2.90;0.70;;;27.60;93.60;;;25.03;100.00;98535.38;5019275;28;20046;-64
2022/07/09 10:14:23;;;;;;;6.05;1.42;;;27.00;94.00;;;24.94;100.00;98544.13;5019224;28;20049;-64
2022/07/09 10:16:52;;;;;;;2.90;1.00;;;26.30;93.60;;;24.86;100.00;98541.28;5022382;28;20075;-64